Alton Bay, New Hampshire
Current Conditions -  °F | °C
As of 6:55 PM on Saturday 22 Nov 2014 (Local Time) from KLCI Reporting Station
Broken Clouds Broken Clouds  
Wind Chill: 28°   Ceiling: 11000
Heat Index: 36°   Visibility: 10mi
Dew Point:   Wind: 12mph
Humidity: 33%   Direction: 230°SW
Pressure: 29.99"   Gusts: NA
Location:  43.47°N, 71.23°W
Report Text: KLCI 222355Z AUTO 23010KT 10SM FEW070 BKN110 02/M13 A2999 RMK AO1 10020 20000 400201070 57014
Loading
Personal Weather Stations






























Interactive Weather Map New forecast layout! Learn more

10-Day Weather Forecast

Advertisements
Track Severe Weather on mobile